createdAt,value
2018-10-12T00:00:00.720Z,18.15
2018-10-12T00:01:00.663Z,18.00
2018-10-12T00:02:00.617Z,18.03
2018-10-12T00:03:00.580Z,17.97
2018-10-12T00:04:00.548Z,18.02
2018-10-12T00:05:00.535Z,17.95
2018-10-12T00:06:00.475Z,17.96
2018-10-12T00:07:00.433Z,17.92
2018-10-12T00:08:00.389Z,17.96
2018-10-12T00:09:00.351Z,18.03
2018-10-12T00:10:00.340Z,18.00
2018-10-12T00:11:00.273Z,18.07
2018-10-12T00:12:00.245Z,18.02
2018-10-12T00:13:00.207Z,18.00
2018-10-12T00:14:00.168Z,18.03
2018-10-12T00:15:00.159Z,18.07
2018-10-12T00:16:00.086Z,18.03
2018-10-12T00:17:00.048Z,18.05
2018-10-12T00:18:00.020Z,18.00
2018-10-12T00:19:00.000Z,18.03
2018-10-12T00:19:59.932Z,18.10
2018-10-12T00:20:59.894Z,18.08
2018-10-12T00:21:59.858Z,18.12
2018-10-12T00:22:59.819Z,18.12
2018-10-12T00:23:59.815Z,18.11
2018-10-12T00:24:59.750Z,18.23
2018-10-12T00:25:59.719Z,18.27
2018-10-12T00:26:59.672Z,18.30
2018-10-12T00:27:59.626Z,18.32
2018-10-12T00:28:59.611Z,18.23
2018-10-12T00:29:59.551Z,18.29
2018-10-12T00:30:59.516Z,18.23
2018-10-12T00:31:59.486Z,18.26
2018-10-12T00:32:59.443Z,18.21
2018-10-12T00:33:59.422Z,18.25
2018-10-12T00:34:59.361Z,18.27
2018-10-12T00:35:59.330Z,18.30
2018-10-12T00:36:59.290Z,18.21
2018-10-12T00:37:59.252Z,18.23
2018-10-12T00:38:59.219Z,18.27
2018-10-12T00:39:59.191Z,18.29
2018-10-12T00:40:59.140Z,18.26
2018-10-12T00:41:59.091Z,18.18
2018-10-12T00:42:59.057Z,18.23
2018-10-12T00:43:59.050Z,18.35
2018-10-12T00:44:58.987Z,18.23
2018-10-12T00:45:58.948Z,18.27
2018-10-12T00:46:58.924Z,18.29
2018-10-12T00:47:58.866Z,18.30
2018-10-12T00:48:58.827Z,18.35
2018-10-12T00:49:58.820Z,18.37
2018-10-12T00:50:58.757Z,18.30
2018-10-12T00:51:58.713Z,18.37
2018-10-12T00:52:58.679Z,18.33
2018-10-12T00:53:58.658Z,18.30
2018-10-12T00:54:58.597Z,18.35
2018-10-12T00:55:58.570Z,18.29
2018-10-12T00:56:58.525Z,18.45
2018-10-12T00:57:58.488Z,18.39
2018-10-12T00:58:58.479Z,18.42
2018-10-12T00:59:58.409Z,18.44
2018-10-12T01:00:58.373Z,18.50
2018-10-12T01:01:58.333Z,18.45
2018-10-12T01:02:58.313Z,18.58
2018-10-12T01:03:58.262Z,18.60
2018-10-12T01:04:58.223Z,18.52
2018-10-12T01:05:58.178Z,18.55
2018-10-12T01:06:58.140Z,18.54
2018-10-12T01:07:58.136Z,18.52
2018-10-12T01:08:58.076Z,18.50
2018-10-12T01:09:58.034Z,18.55
2018-10-12T01:10:57.995Z,18.48
2018-10-12T01:11:57.972Z,18.54
2018-10-12T01:12:57.913Z,18.52
2018-10-12T01:13:57.874Z,18.54
2018-10-12T01:14:57.840Z,18.58
2018-10-12T01:15:57.803Z,18.48
2018-10-12T01:16:57.791Z,18.45
2018-10-12T01:17:57.754Z,18.36
2018-10-12T01:18:57.688Z,18.32
2018-10-12T01:19:57.644Z,18.27
2018-10-12T01:20:57.608Z,18.20
2018-10-12T01:21:57.573Z,18.23
2018-10-12T01:22:57.558Z,18.15
2018-10-12T01:23:57.490Z,18.07
2018-10-12T01:24:57.456Z,18.08
2018-10-12T01:25:57.420Z,18.03
2018-10-12T01:26:57.381Z,18.07
2018-10-12T01:27:57.368Z,18.18
2018-10-12T01:28:57.312Z,18.14
2018-10-12T01:29:57.275Z,18.12
2018-10-12T01:30:57.236Z,17.99
2018-10-12T01:31:57.186Z,18.02
2018-10-12T01:32:57.174Z,18.02
2018-10-12T01:33:57.113Z,18.05
2018-10-12T01:34:57.072Z,18.08
2018-10-12T01:35:57.039Z,18.02
2018-10-12T01:36:57.003Z,18.05
2018-10-12T01:37:56.980Z,18.03
2018-10-12T01:38:56.919Z,17.97
2018-10-12T01:39:56.885Z,17.96
2018-10-12T01:40:56.851Z,17.99
2018-10-12T01:41:56.809Z,18.00
2018-10-12T01:42:56.797Z,17.92
2018-10-12T01:43:56.737Z,17.99
2018-10-12T01:44:56.691Z,18.02
2018-10-12T01:45:56.651Z,17.99
2018-10-12T01:46:56.618Z,17.99
2018-10-12T01:47:56.608Z,18.07
2018-10-12T01:48:56.545Z,18.05
2018-10-12T01:49:56.506Z,18.03
2018-10-12T01:50:56.469Z,18.12
2018-10-12T01:51:56.422Z,18.17
2018-10-12T01:52:56.406Z,18.12
2018-10-12T01:53:56.376Z,18.17
2018-10-12T01:54:56.315Z,18.15
2018-10-12T01:55:56.273Z,18.12
2018-10-12T01:56:56.234Z,18.15
2018-10-12T01:57:56.223Z,18.12
2018-10-12T01:58:56.159Z,18.12
2018-10-12T01:59:56.124Z,18.18
2018-10-12T02:00:56.090Z,18.11
2018-10-12T02:01:56.070Z,18.12
2018-10-12T02:02:56.038Z,18.17
2018-10-12T02:03:55.965Z,18.00
2018-10-12T02:04:55.925Z,18.08
2018-10-12T02:05:55.886Z,18.03
2018-10-12T02:06:55.853Z,18.18
2018-10-12T02:07:55.818Z,18.12
2018-10-12T02:08:55.804Z,18.26
2018-10-12T02:09:55.741Z,18.23
2018-10-12T02:10:55.696Z,18.23
2018-10-12T02:11:55.666Z,18.23
2018-10-12T02:13:04.678Z,18.18
2018-10-12T02:14:05.236Z,18.21
2018-10-12T02:15:05.753Z,18.23
2018-10-12T02:16:04.794Z,18.12
2018-10-12T02:17:05.827Z,18.10
2018-10-12T02:18:04.851Z,18.05
2018-10-12T02:18:55.406Z,18.14
2018-10-12T02:19:55.355Z,18.12
2018-10-12T02:20:55.321Z,18.08
2018-10-12T02:21:55.283Z,18.03
2018-10-12T02:22:55.239Z,18.00
2018-10-12T02:23:55.221Z,18.03
2018-10-12T02:24:55.156Z,18.02
2018-10-12T02:25:55.116Z,17.92
2018-10-12T02:26:55.079Z,18.03
2018-10-12T02:27:55.049Z,17.96
2018-10-12T02:28:55.011Z,17.90
2018-10-12T02:29:54.989Z,17.96
2018-10-12T02:30:54.925Z,17.96
2018-10-12T02:31:54.893Z,17.84
2018-10-12T02:32:54.855Z,17.93
2018-10-12T02:33:54.819Z,17.97
2018-10-12T02:34:54.803Z,17.90
2018-10-12T02:35:54.733Z,17.92
2018-10-12T02:36:54.695Z,17.96
2018-10-12T02:38:03.897Z,17.93
2018-10-12T02:39:04.940Z,17.93
2018-10-12T02:40:03.491Z,17.92
2018-10-12T02:41:04.001Z,17.90
2018-10-12T02:42:04.533Z,17.82
2018-10-12T02:43:03.564Z,17.93
2018-10-12T02:44:03.599Z,17.92
2018-10-12T02:45:04.637Z,17.96
2018-10-12T02:46:03.200Z,17.96
2018-10-12T02:47:03.727Z,17.92
2018-10-12T02:48:03.745Z,17.90
2018-10-12T02:48:54.234Z,17.89
2018-10-12T02:50:03.291Z,17.79
2018-10-12T02:50:54.181Z,17.86
2018-10-12T02:53:42.091Z,17.84
2018-10-12T02:54:42.616Z,17.72
2018-10-12T02:55:42.169Z,17.68
2018-10-12T02:56:33.255Z,17.70
2018-10-12T02:57:33.217Z,17.66
2018-10-12T02:58:33.170Z,17.72
2018-10-12T02:59:33.130Z,17.64
2018-10-12T03:00:33.093Z,17.63
2018-10-12T03:01:33.074Z,17.68
2018-10-12T03:02:33.020Z,17.71
2018-10-12T03:03:32.982Z,17.63
2018-10-12T03:04:32.962Z,17.63
2018-10-12T03:05:32.903Z,17.68
2018-10-12T03:06:41.708Z,17.62
2018-10-12T03:07:32.819Z,17.59
2018-10-12T03:08:32.788Z,17.66
2018-10-12T03:09:32.745Z,17.68
2018-10-12T03:10:32.707Z,17.56
2018-10-12T03:11:41.259Z,17.66
2018-10-12T03:12:41.758Z,17.64
2018-10-12T03:13:41.791Z,17.63
2018-10-12T03:14:42.827Z,17.63
2018-10-12T03:15:41.850Z,17.55
2018-10-12T03:16:41.882Z,17.54
2018-10-12T03:17:41.431Z,17.64
2018-10-12T03:18:42.452Z,17.66
2018-10-12T03:19:41.476Z,17.77
2018-10-12T03:20:41.512Z,17.71
2018-10-12T03:21:41.546Z,17.71
2018-10-12T03:22:41.101Z,17.64
2018-10-12T03:23:41.609Z,17.56
2018-10-12T03:24:41.648Z,17.59
2018-10-12T03:25:41.168Z,17.62
2018-10-12T03:26:32.073Z,17.59
2018-10-12T03:27:32.066Z,17.54
2018-10-12T03:28:32.005Z,17.64
2018-10-12T03:29:31.965Z,17.64
2018-10-12T03:30:31.916Z,17.64
2018-10-12T03:31:31.878Z,17.72
2018-10-12T03:32:31.837Z,17.78
2018-10-12T03:33:31.822Z,17.82
2018-10-12T03:34:31.765Z,17.84
2018-10-12T03:35:31.729Z,17.79
2018-10-12T03:36:31.688Z,17.84
2018-10-12T03:37:31.650Z,17.78
2018-10-12T03:38:31.627Z,17.84
2018-10-12T03:39:31.564Z,17.86
2018-10-12T03:40:31.530Z,17.86
2018-10-12T03:41:31.491Z,17.92
2018-10-12T03:42:31.456Z,17.92
2018-10-12T03:43:31.440Z,17.74
2018-10-12T03:44:31.371Z,17.84
2018-10-12T03:45:31.333Z,17.77
2018-10-12T03:46:31.330Z,17.77
2018-10-12T03:47:31.262Z,17.70
2018-10-12T03:48:31.225Z,17.62
2018-10-12T03:49:31.207Z,17.63
2018-10-12T03:50:31.139Z,17.64
2018-10-12T03:51:31.103Z,17.58
2018-10-12T03:52:31.075Z,17.56
2018-10-12T03:53:31.032Z,17.68
2018-10-12T03:54:31.012Z,17.55
2018-10-12T03:55:30.950Z,17.54
2018-10-12T03:56:30.909Z,17.54
2018-10-12T03:57:30.871Z,17.51
2018-10-12T03:58:30.838Z,17.70
2018-10-12T03:59:30.827Z,17.68
2018-10-12T04:00:30.758Z,17.54
2018-10-12T04:01:30.718Z,17.52
2018-10-12T04:02:30.685Z,17.51
2018-10-12T04:03:30.647Z,17.54
2018-10-12T04:04:30.639Z,17.48
2018-10-12T04:05:30.572Z,17.43
2018-10-12T04:06:30.525Z,17.46
2018-10-12T04:07:30.486Z,17.48
2018-10-12T04:08:30.450Z,17.44
2018-10-12T04:09:30.410Z,17.49
2018-10-12T04:10:30.405Z,17.44
2018-10-12T04:11:30.340Z,17.46
2018-10-12T04:12:30.321Z,17.41
2018-10-12T04:13:30.264Z,17.31
2018-10-12T04:14:30.242Z,17.33
2018-10-12T04:15:30.205Z,17.26
2018-10-12T04:16:30.151Z,17.31
2018-10-12T04:17:30.110Z,17.30
2018-10-12T04:18:30.063Z,17.28
2018-10-12T04:19:30.024Z,17.37
2018-10-12T04:20:30.017Z,17.28
2018-10-12T04:21:29.951Z,17.31
2018-10-12T04:22:29.920Z,17.33
2018-10-12T04:23:29.887Z,17.43
2018-10-12T04:24:29.841Z,17.40
2018-10-12T04:25:29.802Z,17.40
2018-10-12T04:26:29.781Z,17.44
2018-10-12T04:27:29.718Z,17.43
2018-10-12T04:28:29.681Z,17.41
2018-10-12T04:29:29.642Z,17.46
2018-10-12T04:30:29.612Z,17.41
2018-10-12T04:31:29.594Z,17.48
2018-10-12T04:32:29.525Z,17.40
2018-10-12T04:33:29.490Z,17.43
2018-10-12T04:34:29.457Z,17.46
2018-10-12T04:35:29.416Z,17.55
2018-10-12T04:36:29.403Z,17.52
2018-10-12T04:37:29.361Z,17.49
2018-10-12T04:38:29.295Z,17.38
2018-10-12T04:39:29.259Z,17.48
2018-10-12T04:40:29.221Z,17.48
2018-10-12T04:41:29.179Z,17.46
2018-10-12T04:42:29.170Z,17.38
2018-10-12T04:43:29.113Z,17.40
2018-10-12T04:44:29.070Z,17.40
2018-10-12T04:45:29.033Z,17.46
2018-10-12T04:46:28.987Z,17.31
2018-10-12T04:47:28.988Z,17.34
2018-10-12T04:48:28.921Z,17.33
2018-10-12T04:49:28.877Z,17.31
2018-10-12T04:50:28.833Z,17.26
2018-10-12T04:51:28.797Z,17.21
2018-10-12T04:52:28.755Z,17.23
2018-10-12T04:53:28.737Z,17.19
2018-10-12T04:54:28.685Z,17.18
2018-10-12T04:55:28.651Z,17.15
2018-10-12T04:56:28.607Z,17.16
2018-10-12T04:57:28.569Z,17.12
2018-10-12T04:58:28.556Z,17.12
2018-10-12T04:59:28.489Z,17.04
2018-10-12T05:00:28.447Z,16.98
2018-10-12T05:01:28.409Z,17.03
2018-10-12T05:02:28.381Z,17.01
2018-10-12T05:03:28.361Z,17.07
2018-10-12T05:04:28.297Z,17.14
2018-10-12T05:05:28.257Z,17.14
2018-10-12T05:06:28.249Z,17.19
2018-10-12T05:07:28.194Z,17.08
2018-10-12T05:08:28.150Z,17.06
2018-10-12T05:09:28.128Z,17.03
2018-10-12T05:10:28.064Z,17.11
2018-10-12T05:11:28.025Z,17.14
2018-10-12T05:12:27.986Z,17.21
2018-10-12T05:13:27.947Z,17.21
2018-10-12T05:14:27.942Z,17.19
2018-10-12T05:15:27.878Z,17.15
2018-10-12T05:16:27.844Z,17.21
2018-10-12T05:17:27.820Z,17.16
2018-10-12T05:18:27.753Z,17.19
2018-10-12T05:19:27.748Z,17.18
2018-10-12T05:20:27.684Z,17.30
2018-10-12T05:21:27.646Z,17.31
2018-10-12T05:22:27.598Z,17.26
2018-10-12T05:23:27.558Z,17.14
2018-10-12T05:24:27.545Z,17.23
2018-10-12T05:25:27.482Z,17.28
2018-10-12T05:26:27.452Z,17.28
2018-10-12T05:27:27.434Z,17.31
2018-10-12T05:28:27.373Z,17.36
2018-10-12T05:29:27.357Z,17.43
2018-10-12T05:30:27.288Z,17.38
2018-10-12T05:31:27.250Z,17.51
2018-10-12T05:32:27.216Z,17.40
2018-10-12T05:33:27.176Z,17.40
2018-10-12T05:34:27.174Z,17.43
2018-10-12T05:35:27.115Z,17.46
2018-10-12T05:36:27.061Z,17.40
2018-10-12T05:37:27.021Z,17.46
2018-10-12T05:38:26.986Z,17.25
2018-10-12T05:39:26.949Z,17.28
2018-10-12T05:40:26.935Z,17.26
2018-10-12T05:41:26.872Z,17.36
2018-10-12T05:42:26.832Z,17.34
2018-10-12T05:43:26.927Z,17.28
2018-10-12T05:44:26.748Z,17.25
2018-10-12T05:45:26.737Z,17.18
2018-10-12T05:46:26.682Z,17.30
2018-10-12T05:47:26.642Z,17.30
2018-10-12T05:48:26.599Z,17.38
2018-10-12T05:49:26.574Z,17.28
2018-10-12T05:50:26.539Z,17.34
2018-10-12T05:51:26.479Z,17.31
2018-10-12T05:52:26.471Z,17.34
2018-10-12T05:53:26.410Z,17.33
2018-10-12T05:54:26.364Z,17.36
2018-10-12T05:55:26.328Z,17.34
2018-10-12T05:56:26.293Z,17.33
2018-10-12T05:57:26.270Z,17.31
2018-10-12T05:58:26.213Z,17.26
2018-10-12T05:59:26.177Z,17.30
2018-10-12T06:00:26.134Z,17.26
2018-10-12T06:01:26.148Z,17.36
2018-10-12T06:02:26.075Z,17.40
2018-10-12T06:03:26.013Z,17.41
2018-10-12T06:04:25.977Z,17.41
2018-10-12T06:05:25.964Z,17.48
2018-10-12T06:06:25.903Z,17.44
2018-10-12T06:07:25.892Z,17.41
2018-10-12T06:08:25.820Z,17.55
2018-10-12T06:09:25.831Z,17.43
2018-10-12T06:10:25.771Z,17.54
2018-10-12T06:11:25.755Z,17.46
2018-10-12T06:12:25.677Z,17.48
2018-10-12T06:13:25.640Z,17.44
2018-10-12T06:14:25.593Z,17.58
2018-10-12T06:15:25.645Z,17.56
2018-10-12T06:16:25.513Z,17.58
2018-10-12T06:17:25.473Z,17.71
2018-10-12T06:18:25.441Z,17.59
2018-10-12T06:19:25.402Z,17.58
2018-10-12T06:20:25.367Z,17.64
2018-10-12T06:21:25.392Z,17.55
2018-10-12T06:22:25.282Z,17.62
2018-10-12T06:23:25.242Z,17.64
2018-10-12T06:24:25.218Z,17.64
2018-10-12T06:25:25.181Z,17.64
2018-10-12T06:26:25.149Z,17.70
2018-10-12T06:27:25.111Z,17.81
2018-10-12T06:28:25.054Z,18.14
2018-10-12T06:29:25.012Z,18.54
2018-10-12T06:30:24.990Z,18.80
2018-10-12T06:31:24.968Z,18.99
2018-10-12T06:32:24.928Z,19.26
2018-10-12T06:33:24.869Z,19.40
2018-10-12T06:34:24.826Z,19.48
2018-10-12T06:35:24.785Z,19.74
2018-10-12T06:36:24.768Z,19.59
2018-10-12T06:37:24.710Z,19.51
2018-10-12T06:38:24.677Z,19.54
2018-10-12T06:39:24.675Z,19.69
2018-10-12T06:40:24.600Z,19.77
2018-10-12T06:41:24.627Z,20.01
2018-10-12T06:42:24.529Z,20.14
2018-10-12T06:43:24.513Z,20.28
2018-10-12T06:44:24.456Z,20.26
2018-10-12T06:45:24.421Z,20.28
2018-10-12T06:46:24.445Z,20.39
2018-10-12T06:47:24.338Z,20.55
2018-10-12T06:48:24.329Z,20.55
2018-10-12T06:49:24.266Z,20.61
2018-10-12T06:50:24.235Z,20.43
2018-10-12T06:51:24.198Z,20.73
2018-10-12T06:52:24.161Z,20.85
2018-10-12T06:53:24.151Z,20.88
2018-10-12T06:54:24.087Z,20.76
2018-10-12T06:55:24.049Z,20.55
2018-10-12T06:56:24.019Z,20.32
2018-10-12T06:57:23.985Z,20.57
2018-10-12T06:58:23.964Z,20.52
2018-10-12T06:59:23.907Z,20.70
2018-10-12T07:00:23.871Z,20.70
2018-10-12T07:01:23.831Z,20.94
2018-10-12T07:02:23.807Z,20.89
2018-10-12T07:03:23.791Z,21.01
2018-10-12T07:04:23.732Z,21.12
2018-10-12T07:05:23.718Z,21.19
2018-10-12T07:06:23.655Z,21.53
2018-10-12T07:07:23.617Z,21.46
2018-10-12T07:08:23.584Z,20.89
2018-10-12T07:09:23.552Z,20.82
2018-10-12T07:10:23.545Z,20.88
2018-10-12T07:11:23.484Z,21.04
2018-10-12T07:12:23.446Z,21.19
2018-10-12T07:13:23.409Z,21.25
2018-10-12T07:14:23.403Z,21.34
2018-10-12T07:15:23.344Z,21.44
2018-10-12T07:16:23.308Z,21.19
2018-10-12T07:17:23.272Z,21.46
2018-10-12T07:18:23.231Z,21.44
2018-10-12T07:19:23.259Z,21.38
2018-10-12T07:20:23.163Z,21.54
2018-10-12T07:21:23.127Z,21.74
2018-10-12T07:22:23.098Z,21.32
2018-10-12T07:23:23.068Z,21.09
2018-10-12T07:24:23.030Z,21.01
2018-10-12T07:25:23.021Z,21.13
2018-10-12T07:26:22.953Z,21.22
2018-10-12T07:27:22.921Z,21.19
2018-10-12T07:28:22.895Z,21.43
2018-10-12T07:29:22.855Z,21.27
2018-10-12T07:30:22.839Z,21.50
2018-10-12T07:31:22.796Z,21.88
2018-10-12T07:32:22.750Z,21.61
2018-10-12T07:33:22.714Z,21.52
2018-10-12T07:34:22.685Z,21.79
2018-10-12T07:35:22.674Z,22.18
2018-10-12T07:36:22.615Z,21.96
2018-10-12T07:37:22.935Z,22.05
2018-10-12T07:38:22.537Z,22.39
2018-10-12T07:39:22.504Z,22.18
2018-10-12T07:40:22.497Z,22.62
2018-10-12T07:41:22.438Z,22.68
2018-10-12T07:42:22.460Z,22.14
2018-10-12T07:43:22.379Z,21.68
2018-10-12T07:44:22.340Z,21.16
2018-10-12T07:45:22.302Z,20.94
2018-10-12T07:46:22.297Z,20.95
2018-10-12T07:47:22.297Z,20.91
2018-10-12T07:48:22.238Z,20.74
2018-10-12T07:49:22.174Z,20.70
2018-10-12T07:50:22.132Z,20.74
2018-10-12T07:51:22.123Z,20.87
2018-10-12T07:52:22.062Z,21.35
2018-10-12T07:53:22.099Z,21.58
2018-10-12T07:54:22.023Z,21.86
2018-10-12T07:55:21.968Z,22.37
2018-10-12T07:56:21.956Z,22.92
2018-10-12T07:57:21.901Z,23.20
2018-10-12T07:58:21.862Z,23.27
2018-10-12T07:59:21.844Z,22.80
2018-10-12T08:00:21.888Z,23.05
2018-10-12T08:01:21.779Z,23.33
2018-10-12T08:02:21.743Z,23.51
2018-10-12T08:03:21.688Z,23.60
2018-10-12T08:04:21.655Z,23.70
2018-10-12T08:05:21.619Z,23.58
2018-10-12T08:06:21.699Z,23.63
2018-10-12T08:07:21.585Z,23.84
2018-10-12T08:08:21.523Z,24.05
2018-10-12T08:09:21.490Z,24.27
2018-10-12T08:10:21.453Z,23.91
2018-10-12T08:11:21.417Z,23.90
2018-10-12T08:12:21.417Z,23.97
2018-10-12T08:13:21.352Z,23.25
2018-10-12T08:14:21.329Z,23.39
2018-10-12T08:15:21.295Z,23.69
2018-10-12T08:16:21.256Z,23.66
2018-10-12T08:17:21.220Z,23.17
2018-10-12T08:18:21.214Z,23.25
2018-10-12T08:19:21.161Z,23.01
2018-10-12T08:20:21.150Z,23.07
2018-10-12T08:21:21.100Z,23.19
2018-10-12T08:22:21.055Z,23.61
2018-10-12T08:23:21.046Z,23.35
2018-10-12T08:24:20.991Z,23.04
2018-10-12T08:25:20.959Z,23.33
2018-10-12T08:26:20.930Z,23.12
2018-10-12T08:27:20.902Z,23.04
2018-10-12T08:28:20.891Z,22.98
2018-10-12T08:29:20.836Z,22.85
2018-10-12T08:30:20.791Z,22.51
2018-10-12T08:31:20.773Z,22.36
2018-10-12T08:32:20.732Z,22.21
2018-10-12T08:33:20.724Z,22.05
2018-10-12T08:34:20.660Z,21.91
2018-10-12T08:35:20.626Z,21.75
2018-10-12T08:36:20.617Z,21.69
2018-10-12T08:37:20.560Z,21.77
2018-10-12T08:38:20.530Z,21.80
2018-10-12T08:39:20.522Z,21.77
2018-10-12T08:40:20.460Z,22.00
2018-10-12T08:41:20.428Z,22.05
2018-10-12T08:42:20.388Z,22.14
2018-10-12T08:43:20.355Z,21.79
2018-10-12T08:44:20.344Z,22.21
2018-10-12T08:45:20.286Z,22.45
2018-10-12T08:46:20.265Z,22.42
2018-10-12T08:47:20.232Z,22.28
2018-10-12T08:48:20.185Z,22.17
2018-10-12T08:49:20.176Z,22.03
2018-10-12T08:50:20.128Z,21.98
2018-10-12T08:51:20.088Z,21.71
2018-10-12T08:52:20.056Z,21.52
2018-10-12T08:53:20.017Z,21.54
2018-10-12T08:54:19.978Z,21.77
2018-10-12T08:55:20.017Z,21.98
2018-10-12T08:56:19.912Z,22.07
2018-10-12T08:57:19.873Z,21.96
2018-10-12T08:58:19.845Z,21.86
2018-10-12T08:59:19.812Z,21.98
2018-10-12T09:00:19.807Z,22.33
2018-10-12T09:01:19.743Z,22.58
2018-10-12T09:02:19.702Z,22.76
2018-10-12T09:03:19.671Z,23.35
2018-10-12T09:04:19.643Z,23.42
2018-10-12T09:05:19.610Z,23.65
2018-10-12T09:06:19.588Z,24.12
2018-10-12T09:07:19.531Z,24.61
2018-10-12T09:08:19.498Z,24.71
2018-10-12T09:09:19.471Z,25.13
2018-10-12T09:10:19.442Z,25.47
2018-10-12T09:11:19.431Z,25.32
2018-10-12T09:12:19.373Z,25.43
2018-10-12T09:13:19.340Z,24.88
2018-10-12T09:14:19.299Z,24.62
2018-10-12T09:15:19.269Z,24.50
2018-10-12T09:16:19.247Z,24.53
2018-10-12T09:17:19.224Z,24.64
2018-10-12T09:18:19.177Z,24.27
2018-10-12T09:19:19.143Z,24.34
2018-10-12T09:20:19.143Z,24.21
2018-10-12T09:21:19.094Z,24.43
2018-10-12T09:22:19.047Z,24.87
2018-10-12T09:23:19.015Z,25.09
2018-10-12T09:24:18.982Z,25.32
2018-10-12T09:25:18.961Z,25.21
2018-10-12T09:26:18.937Z,25.15
2018-10-12T09:27:18.953Z,25.13
2018-10-12T09:28:18.848Z,25.02
2018-10-12T09:29:18.815Z,25.35
2018-10-12T09:30:18.823Z,25.39
2018-10-12T09:31:18.758Z,25.35
2018-10-12T09:32:18.749Z,25.39
2018-10-12T09:33:18.694Z,25.36
2018-10-12T09:34:18.657Z,25.14
2018-10-12T09:35:18.626Z,24.65
2018-10-12T09:36:18.606Z,24.40
2018-10-12T09:37:18.592Z,24.24
2018-10-12T09:38:18.530Z,24.13
2018-10-12T09:39:18.498Z,24.47
2018-10-12T09:40:18.471Z,24.93
2018-10-12T09:41:18.439Z,24.60
2018-10-12T09:42:18.426Z,24.09
2018-10-12T09:43:18.413Z,23.42
2018-10-12T09:44:18.373Z,23.72
2018-10-12T09:45:18.311Z,24.15
2018-10-12T09:46:18.278Z,23.97
2018-10-12T09:47:18.266Z,23.94
2018-10-12T09:48:18.232Z,24.09
2018-10-12T09:49:18.177Z,24.09
2018-10-12T09:50:18.236Z,23.97
2018-10-12T09:51:18.120Z,24.32
2018-10-12T09:52:18.105Z,24.47
2018-10-12T09:53:18.071Z,24.64
2018-10-12T09:54:18.020Z,24.87
2018-10-12T09:55:17.989Z,25.02
2018-10-12T09:56:17.960Z,25.02
2018-10-12T09:57:17.929Z,24.98
2018-10-12T09:58:17.931Z,25.15
2018-10-12T09:59:17.854Z,24.99
2018-10-12T10:00:17.824Z,24.96
2018-10-12T10:01:17.790Z,25.13
2018-10-12T10:02:17.876Z,24.96
2018-10-12T10:03:17.732Z,25.15
2018-10-12T10:04:17.724Z,25.10
2018-10-12T10:05:17.672Z,25.13
2018-10-12T10:06:17.631Z,25.13
2018-10-12T10:07:17.624Z,25.24
2018-10-12T10:08:17.679Z,25.42
2018-10-12T10:09:17.542Z,24.55
2018-10-12T10:10:17.502Z,24.60
2018-10-12T10:11:17.473Z,24.87
2018-10-12T10:12:17.443Z,25.09
2018-10-12T10:13:17.428Z,25.32
2018-10-12T10:14:17.414Z,25.39
2018-10-12T10:15:17.390Z,25.39
2018-10-12T10:16:17.318Z,25.57
2018-10-12T10:17:17.289Z,25.67
2018-10-12T10:18:17.251Z,25.33
2018-10-12T10:19:17.276Z,25.00
2018-10-12T10:20:17.215Z,25.24
2018-10-12T10:21:17.155Z,25.61
2018-10-12T10:22:17.143Z,25.77
2018-10-12T10:23:17.123Z,25.87
2018-10-12T10:24:17.061Z,25.65
2018-10-12T10:25:17.031Z,25.35
2018-10-12T10:26:17.029Z,25.33
2018-10-12T10:27:16.979Z,25.46
2018-10-12T10:28:16.943Z,25.46
2018-10-12T10:29:17.048Z,25.43
2018-10-12T10:30:16.875Z,25.38
2018-10-12T10:31:16.846Z,25.75
2018-10-12T10:32:16.882Z,25.83
2018-10-12T10:33:16.780Z,26.29
2018-10-12T10:34:16.783Z,26.35
2018-10-12T10:35:16.724Z,25.95
2018-10-12T10:36:16.694Z,26.17
2018-10-12T10:37:16.665Z,26.01
2018-10-12T10:38:16.627Z,26.25
2018-10-12T10:39:16.599Z,26.35
2018-10-12T10:40:16.600Z,26.36
2018-10-12T10:41:16.544Z,26.36
2018-10-12T10:42:16.506Z,26.57
2018-10-12T10:43:16.475Z,26.69
2018-10-12T10:44:16.446Z,26.66
2018-10-12T10:45:16.515Z,26.54
2018-10-12T10:46:16.429Z,26.55
2018-10-12T10:47:16.361Z,26.35
2018-10-12T10:48:16.332Z,26.37
2018-10-12T10:49:16.301Z,26.44
2018-10-12T10:50:16.285Z,26.33
2018-10-12T10:51:16.232Z,26.47
2018-10-12T10:52:16.203Z,26.45
2018-10-12T10:53:16.172Z,26.20
2018-10-12T10:54:16.148Z,25.94
2018-10-12T10:55:16.141Z,25.97
2018-10-12T10:56:16.081Z,25.94
2018-10-12T10:57:16.049Z,25.83
2018-10-12T10:58:16.026Z,25.76
2018-10-12T10:59:15.997Z,25.83
2018-10-12T11:00:15.997Z,25.83
2018-10-12T11:01:15.934Z,25.70
2018-10-12T11:02:15.897Z,25.50
2018-10-12T11:03:15.867Z,25.69
2018-10-12T11:04:15.838Z,25.70
2018-10-12T11:05:15.803Z,25.72
2018-10-12T11:06:15.817Z,25.76
2018-10-12T11:07:15.753Z,25.88
2018-10-12T11:08:15.721Z,26.07
2018-10-12T11:09:15.690Z,26.10
2018-10-12T11:10:15.653Z,25.82
2018-10-12T11:11:15.648Z,25.82
2018-10-12T11:12:15.658Z,26.18
2018-10-12T11:13:15.690Z,26.21
2018-10-12T11:14:15.528Z,25.98
2018-10-12T11:15:15.499Z,25.95
2018-10-12T11:16:15.492Z,26.07
2018-10-12T11:17:15.463Z,26.23
2018-10-12T11:18:15.414Z,26.23
2018-10-12T11:19:15.386Z,26.01
2018-10-12T11:20:15.355Z,25.80
2018-10-12T11:21:15.324Z,25.95
2018-10-12T11:22:15.282Z,26.09
2018-10-12T11:23:15.282Z,26.33
2018-10-12T11:24:15.266Z,25.95
2018-10-12T11:25:15.195Z,26.18
2018-10-12T11:26:15.206Z,26.23
2018-10-12T11:27:15.138Z,26.15
2018-10-12T11:28:15.106Z,26.06
2018-10-12T11:29:15.072Z,26.15
2018-10-12T11:30:15.047Z,25.99
2018-10-12T11:31:15.040Z,25.76
2018-10-12T11:32:14.988Z,25.83
2018-10-12T11:33:14.978Z,25.62
2018-10-12T11:34:14.917Z,25.46
2018-10-12T11:35:14.887Z,25.62
2018-10-12T11:36:14.855Z,25.77
2018-10-12T11:37:14.864Z,25.62
2018-10-12T11:38:14.845Z,25.83
2018-10-12T11:39:14.773Z,25.95
2018-10-12T11:40:14.741Z,25.85
2018-10-12T11:41:14.709Z,25.82
2018-10-12T11:42:14.691Z,25.80
2018-10-12T11:43:14.641Z,25.94
2018-10-12T11:44:14.616Z,26.09
2018-10-12T11:45:14.631Z,25.94
2018-10-12T11:46:14.551Z,26.18
2018-10-12T11:47:14.546Z,26.07
2018-10-12T11:48:14.487Z,26.12
2018-10-12T11:49:14.462Z,25.85
2018-10-12T11:50:14.432Z,25.92
2018-10-12T11:51:14.400Z,25.90
2018-10-12T11:52:14.440Z,25.85
2018-10-12T11:53:14.360Z,25.85
2018-10-12T11:54:14.301Z,25.85
2018-10-12T11:55:14.272Z,25.79
2018-10-12T11:56:14.242Z,25.67
2018-10-12T11:57:14.236Z,25.73
2018-10-12T11:58:14.205Z,25.61
2018-10-12T11:59:14.155Z,25.58
2018-10-12T12:00:14.115Z,25.77
2018-10-12T12:01:14.083Z,25.87
2018-10-12T12:02:14.112Z,25.95
2018-10-12T12:03:14.055Z,25.90
2018-10-12T12:04:13.995Z,26.09
2018-10-12T12:05:13.963Z,26.05
2018-10-12T12:06:13.927Z,26.09
2018-10-12T12:07:13.924Z,25.82
2018-10-12T12:08:13.892Z,26.01
2018-10-12T12:09:13.833Z,26.09
2018-10-12T12:10:13.809Z,26.06
2018-10-12T12:11:13.776Z,25.97
2018-10-12T12:12:13.746Z,25.95
2018-10-12T12:13:13.715Z,25.94
2018-10-12T12:14:13.703Z,25.87
2018-10-12T12:15:13.646Z,25.85
2018-10-12T12:16:13.622Z,25.92
2018-10-12T12:17:13.588Z,26.09
2018-10-12T12:18:13.574Z,26.06
2018-10-12T12:19:13.526Z,25.99
2018-10-12T12:20:13.486Z,25.94
2018-10-12T12:21:13.476Z,25.92
2018-10-12T12:22:13.430Z,25.95
2018-10-12T12:23:13.408Z,26.05
2018-10-12T12:24:13.392Z,25.94
2018-10-12T12:25:13.334Z,26.02
2018-10-12T12:26:13.296Z,25.99
2018-10-12T12:27:13.270Z,26.06
2018-10-12T12:28:13.235Z,26.05
2018-10-12T12:29:13.223Z,26.02
2018-10-12T12:30:13.199Z,26.10
2018-10-12T12:31:13.155Z,25.98
2018-10-12T12:32:13.110Z,26.10
2018-10-12T12:33:13.077Z,26.12
2018-10-12T12:34:13.075Z,26.07
2018-10-12T12:35:13.206Z,26.21
2018-10-12T12:36:13.101Z,26.13
2018-10-12T12:37:12.955Z,26.15
2018-10-12T12:38:12.920Z,26.09
2018-10-12T12:39:12.886Z,26.01
2018-10-12T12:40:12.881Z,26.18
2018-10-12T12:41:12.824Z,26.17
2018-10-12T12:42:12.798Z,26.21
2018-10-12T12:43:12.769Z,26.18
2018-10-12T12:44:12.735Z,26.30
2018-10-12T12:45:12.734Z,26.33
2018-10-12T12:46:12.668Z,26.17
2018-10-12T12:47:12.667Z,26.17
2018-10-12T12:48:12.803Z,26.07
2018-10-12T12:49:13.013Z,26.07
2018-10-12T12:50:12.565Z,26.07
2018-10-12T12:51:12.510Z,26.09
2018-10-12T12:52:12.475Z,26.06
2018-10-12T12:53:12.441Z,26.26